Tiempo atmosférico en la estación meteorológica de Leciñena, Zaragoza (405 m.)



Fecha
DESCASC
Temp. máxima en grados centígrados (hora)
DESCASC
Temp. mínima en grados centígrados (hora)
DESCASC
Temp. media en grados centígrados
DESCASC
Racha de viento máxima en m/sg (hora)
DESCASC
Velocidad máxima media en intervalos de 10 minutos(hora)
DESCASC
Precipitaciones diarias en mm
DESCASC
Precipitaciones de 00:00 a 06:00 en mm
DESCASC
Precipitaciones de 06:00 a 12:00 en mm
DESCASC
Precipitaciones de 12:00 a 18:00 en mm
DESCASC
Precipitaciones de 18:00 a 24:00 en mm
DESCASC
15-01-2021 10.7 (15:00) 5.3 (00:00) 8 19.44 (13:40) 13.61 (13:40) 0 0 0 0 0
21-01-2021 14.3 (13:20) 3.7 (00:00) 9 8.33 (20:30) 4.72 (13:40) 0.2 0.2 0 0 0
24-12-2020 10.8 (14:30) 3.4 (00:00) 7.1 10 (14:20) 6.39 (14:40) 0 0 0 0 0
23-12-2020 16.3 (15:10) 2.4 (03:40) 9.3 4.17 (15:10) 2.5 (15:10) 0.2 0 0.2 0 0
28-12-2020 10.5 (14:00) 2.3 (00:00) 6.4 14.72 (15:10) 8.33 (02:30) 3.4 3.4 0 0 0
16-01-2021 12.6 (15:40) 1.6 (00:00) 7.1 11.67 (02:00) 7.22 (02:00) 0 0 0 0 0
01-01-2021 7.7 (14:10) 0.9 (00:00) 4.3 11.39 (14:20) 6.94 (14:50) 0 0 0 0 0
13-01-2021 9.8 (15:00) 0.9 (00:00) 5.4 8.33 (04:20) 5 (02:00) 0 0 0 0 0
17-01-2021 13.7 (15:20) 0.6 (00:00) 7.1 13.33 (14:50) 7.78 (13:10) 0 0 0 0 0
30-12-2020 8.7 (13:20) 0.3 (00:00) 4.5 13.89 (12:20) 7.22 (12:20) 0 0 0 0 0
25-12-2020 6.8 (13:30) -0.2 (00:00) 3.3 21.11 (13:20) 13.06 (14:10) 0 0 0 0 0
20-01-2021 9.1 (14:40) -0.3 (00:00) 4.4 9.72 (19:20) 5.28 (19:30) 0.2 0 0 0 0.2
02-01-2021 7.1 (13:20) -0.3 (00:00) 3.4 15.28 (14:20) 8.89 (14:20) 0 0 0 0 0
18-01-2021 13.4 (14:50) -0.4 (00:00) 6.5 7.22 (14:50) 4.44 (15:00) 0 0 0 0 0
26-12-2020 8 (14:40) -0.6 (-00:0) 3.7 13.33 (14:20) 8.89 (14:00) 0 0 0 0 0
10-01-2021 4.9 (11:50) -1.2 (22:40) 1.9 5.83 (20:50) 3.89 (19:40) -- -- -- -- --
27-12-2020 7.6 (21:50) -1.3 (-00:0) 3.1 12.22 (21:40) 7.78 (21:50) 0 0 0 0 0
29-12-2020 9.7 (13:10) -1.3 (-00:0) 4.2 11.11 (15:10) 7.22 (15:50) 0 0 0 0 0
09-01-2021 0.9 (11:50) -1.4 (-00:0) -0.3 3.33 (13:50) 1.67 (13:50) -- 0 0 -- --
03-01-2021 7.8 (14:40) -1.4 (-00:0) 3.2 11.67 (12:00) 7.22 (14:00) 0 0 0 0 0
14-01-2021 8.9 (14:30) -1.9 (04:20) 3.5 13.33 (21:20) 8.89 (23:00) 0 0 0 0 0
31-12-2020 10.9 (14:00) -1.9 (-00:0) 4.5 8.33 (12:10) 4.72 (11:50) 4.4 0 0 0 4.4
19-01-2021 13.3 (16:00) -2.5 (-00:0) 5.4 4.17 (16:50) 2.78 (16:40) 0 0 0 0 0
05-01-2021 7.4 (14:40) -2.8 (-00:0) 2.3 10 (17:20) 6.11 (13:30) 0 0 0 0 0
04-01-2021 6.5 (13:20) -3.5 (-00:0) 1.5 7.5 (12:20) 4.17 (12:50) 0 0 0 0 0
06-01-2021 5.6 (14:40) -6.3 (-00:0) -0.4 4.17 (14:20) 1.94 (14:10) 0 0 0 0 0
07-01-2021 0.5 (14:50) -6.6 (-00:0) -3 2.78 (21:30) 1.67 (20:30) 0 0 0 0 0
08-01-2021 2.9 (15:20) -7 (-00:0) -2 2.5 (12:40) 1.39 (04:10) 0 0 0 0 0
12-01-2021 6.9 (13:50) -10.6 (-00:0) -1.9 11.11 (22:40) 5.28 (22:40) 0 0 0 0 0
11-01-2021 5.3 (13:30) -12.2 (-00:0) -3.4 2.78 (23:20) 1.94 (11:00) -- -- -- -- 0

Gráficas

Temp. máximas Temp. mínimas Temp. medias Precipitaciones Rachas de viento máximas Velocidades máximas media en intervalos de 10 minutos

Datos horarios

Fecha y hora oficial Temperatura (ºC) Velocidad del viento (km/h) Dirección del viento Racha (km/h) Dirección de racha Precipitación (mm) Presión (hPa) Tendencia (hPa) Humedad (%)
2021-01-21 23:00:00 11.2 11 Oeste 19 Oeste 0 -- -- 76
2021-01-21 22:00:00 12.1 12 Oeste 23 Oeste 0 -- -- 72
2021-01-21 21:00:00 12.4 14 Oeste 30 Oeste 0 -- -- 68
2021-01-21 20:00:00 12 8 Oeste 17 Oeste 0 -- -- 69
2021-01-21 19:00:00 12 8 Oeste 22 Oeste 0 -- -- 69
2021-01-21 18:00:00 11.9 8 Sudoeste 14 Oeste 0 -- -- 70
2021-01-21 17:00:00 11.7 6 Oeste 19 Oeste 0 -- -- 71
2021-01-21 16:00:00 12.5 13 Oeste 24 Oeste 0 -- -- 67
2021-01-21 15:00:00 12.4 12 Oeste 25 Oeste 0 -- -- 68
2021-01-21 14:00:00 13.4 15 Oeste 27 Oeste 0 -- -- 65
2021-01-21 13:00:00 13.3 16 Noroeste 29 Noroeste 0 -- -- 65
2021-01-21 12:00:00 11.1 10 Sudoeste 19 Sudoeste 0 -- -- 75
2021-01-21 11:00:00 10 9 Sudoeste 17 Sudoeste 0 -- -- 79
2021-01-21 10:00:00 7.5 3 Sudoeste 6 Sudoeste 0 -- -- 93
2021-01-21 09:00:00 4.8 0 Calma 6 Sur 0 -- -- 96
2021-01-21 08:00:00 4 3 Sur 5 Sur 0 -- -- 97
2021-01-21 07:00:00 5.2 3 Sur 7 Sudoeste 0 -- -- 98
2021-01-21 06:00:00 4.4 0 Calma 5 Sudeste 0 -- -- 98
2021-01-21 05:00:00 3.7 0 Calma 4 Oeste 0 -- -- 97
2021-01-21 04:00:00 5 0 Calma 4 Sudeste 0 -- -- 97
2021-01-21 03:00:00 5.1 2 Noroeste 6 Noroeste 0 -- -- 97
2021-01-21 02:00:00 4.9 3 Sur 5 Noroeste 0.2 -- -- 96
2021-01-21 01:00:00 5.8 0 Calma 13 Nordeste 0 -- -- 93
2021-01-21 00:00:00 7.4 3 Sudoeste 8 Sur 0 -- -- 85
2021-01-20 23:00:00 6.7 7 Sur 13 Sur 0 -- -- 91
2021-01-20 22:00:00 6.7 2 Noroeste 18 Sudeste 0 -- -- 88
2021-01-20 21:00:00 7.2 14 Sudeste 25 Sudeste 0.2 -- -- 88
2021-01-20 20:00:00 7.4 16 Sudeste 35 Sudeste 0 -- -- 85
2021-01-20 19:00:00 7.5 18 Sudeste 33 Sudeste 0 -- -- 81
2021-01-20 18:00:00 6.8 7 Sudeste 24 Sur 0 -- -- 85
2021-01-20 17:00:00 7 7 Sur 23 Sur 0 -- -- 83
2021-01-20 16:00:00 7.1 0 Calma 14 Oeste 0 -- -- 91
2021-01-20 15:00:00 6.5 9 Norte 27 Sur 0 -- -- 90
2021-01-20 14:00:00 7.8 13 Sudoeste 27 Sudeste 0 -- -- 80
2021-01-20 13:00:00 7.5 14 Sur 24 Sudeste 0 -- -- 82
2021-01-20 12:00:00 6.1 4 Sur 11 Sur 0 -- -- 100
2021-01-20 11:00:00 3.2 0 Calma 10 Norte 0 -- -- 99
2021-01-20 10:00:00 2.6 5 Noroeste 12 Sur 0 -- -- 99
2021-01-20 09:00:00 1.1 7 Sur 11 Sur 0 -- -- 98
2021-01-20 08:00:00 -0.2 3 Sur 9 Sur 0 -- -- 97
2021-01-20 07:00:00 0.9 5 Sur 18 Sur 0 -- -- 96
2021-01-20 06:00:00 3.5 0 Calma 20 Sur 0 -- -- 97
2021-01-20 05:00:00 2.3 2 Este 9 Sudoeste 0 -- -- 98
2021-01-20 04:00:00 2.2 2 Nordeste 15 Oeste 0 -- -- 97
2021-01-20 03:00:00 2.2 6 Sudoeste 18 Sur 0 -- -- 97
2021-01-20 02:00:00 3.6 5 Sur 10 Sur 0 -- -- 97
2021-01-20 01:00:00 2.5 4 Sur 10 Sudeste 0 -- -- 94
2021-01-20 00:00:00 0.3 0 Calma 7 Sur 0 -- -- 92
2021-01-19 23:00:00 0.8 0 Calma 6 Sur 0 -- -- 91
2021-01-19 22:00:00 1.1 4 Sudoeste 8 Sudoeste 0 -- -- 86
2021-01-19 21:00:00 1.8 4 Sudoeste 8 Nordeste 0 -- -- 91
2021-01-19 20:00:00 5.1 5 Sur 12 Sur 0 -- -- 81
2021-01-19 19:00:00 3.3 3 Sur 7 Sudoeste 0 -- -- 89
2021-01-19 18:00:00 7.8 0 Calma 13 Sudeste 0 -- -- 75
2021-01-19 17:00:00 11.1 8 Sudeste 15 Sur 0 -- -- 66
2021-01-19 16:00:00 13.3 0 Calma 8 Oeste 0 -- -- 58
2021-01-19 15:00:00 13 3 Oeste 8 Oeste 0 -- -- 62
2021-01-19 14:00:00 11.6 3 Norte 7 Nordeste 0 -- -- 66
2021-01-19 13:00:00 9.8 4 Norte 6 Norte 0 -- -- 75
2021-01-19 12:00:00 7.4 3 Este 9 Norte 0 -- -- 83
2021-01-19 11:00:00 5.6 5 Norte 9 Norte 0 -- -- 89
2021-01-19 10:00:00 2.5 0 Calma 4 Sur 0 -- -- 97
2021-01-19 09:00:00 -1.3 3 Sur 6 Sur 0 -- -- 99
2021-01-19 08:00:00 -1.9 4 Sur 5 Sur 0 -- -- 98
2021-01-19 07:00:00 -2.2 3 Sur 5 Sur 0 -- -- 97
2021-01-19 06:00:00 -1.6 2 Sur 5 Sudoeste 0 -- -- 98
2021-01-19 05:00:00 -0.9 4 Sur 6 Sur 0 -- -- 97
2021-01-19 04:00:00 -1.9 0 Calma 2 Sur 0 -- -- 97
2021-01-19 03:00:00 -1.9 0 Calma 8 Sur 0 -- -- 97
2021-01-19 02:00:00 -0.1 2 Sur 6 Sur 0 -- -- 96
2021-01-19 01:00:00 -0.2 0 Calma 4 Sur 0 -- -- 96
2021-01-19 00:00:00 0 0 Calma 2 Oeste 0 -- -- 95
2021-01-18 23:00:00 1.2 0 Calma 6 Sur 0 -- -- 94
2021-01-18 22:00:00 1.9 5 Sur 8 Sudoeste 0 -- -- 93
2021-01-18 21:00:00 2.1 3 Sudoeste 5 Sur 0 -- -- 95
2021-01-18 20:00:00 3 0 Calma 6 Sur 0 -- -- 90
2021-01-18 19:00:00 6.1 2 Sur 14 Noroeste 0 -- -- 84
2021-01-18 18:00:00 8.9 9 Noroeste 14 Oeste 0 -- -- 74
2021-01-18 17:00:00 12.6 9 Noroeste 20 Noroeste 0 -- -- 61
2021-01-18 16:00:00 13.3 13 Noroeste 23 Noroeste 0 -- -- 59
2021-01-18 15:00:00 13.2 16 Noroeste 26 Noroeste 0 -- -- 60
2021-01-18 14:00:00 11.7 6 Norte 19 Norte 0 -- -- 63
2021-01-18 13:00:00 11.1 10 Norte 18 Norte 0 -- -- 66
2021-01-18 12:00:00 10 3 Nordeste 7 Norte 0 -- -- 74
2021-01-18 11:00:00 8.5 0 Calma 4 Sudeste 0 -- -- 79
2021-01-18 10:00:00 5.6 0 Calma 4 Sur 0 -- -- 95
2021-01-18 09:00:00 1.3 0 Calma 6 Sur 0 -- -- 97
2021-01-18 08:00:00 1.3 5 Sur 9 Sur 0 -- -- 99
2021-01-18 07:00:00 1.3 3 Sur 8 Sudoeste 0 -- -- 97
2021-01-18 06:00:00 2.5 3 Sudoeste 5 Sudoeste 0 -- -- 98
2021-01-18 05:00:00 2.8 2 Sur 9 Nordeste 0 -- -- 95
2021-01-18 04:00:00 3 2 Sudoeste 8 Sudoeste 0 -- -- 93
2021-01-18 03:00:00 4.5 5 Nordeste 15 Norte 0 -- -- 91
2021-01-18 02:00:00 3.8 2 Sudoeste 8 Norte 0 -- -- 94
2021-01-18 01:00:00 5.7 4 Nordeste 21 Noroeste 0 -- -- 89
2021-01-18 00:00:00 7 13 Noroeste 22 Noroeste 0 -- -- 90
2021-01-17 23:00:00 7.1 10 Noroeste 18 Noroeste 0 -- -- 91
2021-01-17 22:00:00 7.9 8 Norte 31 Norte 0 -- -- 86
2021-01-17 21:00:00 8.9 18 Norte 28 Norte 0 -- -- 84
2021-01-17 20:00:00 9.3 12 Norte 28 Norte 0 -- -- 83
2021-01-17 19:00:00 10.1 18 Norte 38 Norte 0 -- -- 80
2021-01-17 18:00:00 11.1 18 Norte 42 Norte 0 -- -- 74
2021-01-17 17:00:00 12.7 24 Norte 47 Norte 0 -- -- 67
2021-01-17 16:00:00 13.5 21 Norte 42 Norte 0 -- -- 63
2021-01-17 15:00:00 13.4 24 Norte 48 Noroeste 0 -- -- 61
2021-01-17 14:00:00 13.1 24 Norte 46 Norte 0 -- -- 60
2021-01-17 13:00:00 12.6 25 Noroeste 40 Noroeste 0 -- -- 55
2021-01-17 12:00:00 10.8 19 Noroeste 37 Noroeste 0 -- -- 53
2021-01-17 11:00:00 9.7 18 Noroeste 27 Noroeste 0 -- -- 54
2021-01-17 10:00:00 4.6 16 Sudoeste 26 Sur 0 -- -- 66
2021-01-17 09:00:00 2.8 9 Sudoeste 21 Oeste 0 -- -- 68
2021-01-17 08:00:00 2.1 9 Sur 23 Noroeste 0 -- -- 71
2021-01-17 07:00:00 1.4 8 Sudoeste 13 Sudoeste 0 -- -- 75
2021-01-17 06:00:00 0.6 6 Sudoeste 13 Sudoeste 0 -- -- 79
2021-01-17 05:00:00 1.8 5 Sudoeste 14 Sur 0 -- -- 74
2021-01-17 04:00:00 2.6 6 Sudoeste 12 Sudoeste 0 -- -- 71
2021-01-17 03:00:00 4.3 8 Sur 22 Oeste 0 -- -- 63
2021-01-17 02:00:00 4.9 13 Oeste 21 Oeste 0 -- -- 62
2021-01-17 01:00:00 4.9 3 Nordeste 17 Noroeste 0 -- -- 60
2021-01-17 00:00:00 6.1 3 Sudeste 10 Noroeste 0 -- -- 51
2021-01-16 23:00:00 4.4 3 Sur 9 Sudoeste 0 -- -- 59
2021-01-16 22:00:00 5.1 4 Sudoeste 10 Nordeste 0 -- -- 56
2021-01-16 21:00:00 5.7 0 Calma 9 Sur 0 -- -- 60
2021-01-16 20:00:00 5.2 5 Sudoeste 8 Sudoeste 0 -- -- 64
2021-01-16 19:00:00 7.7 4 Norte 11 Norte 0 -- -- 55
2021-01-16 18:00:00 9 2 Sur 16 Noroeste 0 -- -- 57
2021-01-16 17:00:00 12.2 6 Noroeste 19 Noroeste 0 -- -- 46
2021-01-16 16:00:00 11.7 10 Norte 19 Norte 0 -- -- 51
2021-01-16 15:00:00 12.3 10 Norte 21 Norte 0 -- -- 47
2021-01-16 14:00:00 11.1 13 Norte 24 Noroeste 0 -- -- 53
2021-01-16 13:00:00 10.4 8 Norte 17 Norte 0 -- -- 53
2021-01-16 12:00:00 8.9 12 Norte 19 Norte 0 -- -- 55
2021-01-16 11:00:00 7.5 8 Norte 15 Norte 0 -- -- 63
2021-01-16 10:00:00 5.6 6 Norte 12 Norte 0 -- -- 73
2021-01-16 09:00:00 2 0 Calma 12 Nordeste 0 -- -- 85
2021-01-16 08:00:00 1.6 5 Sur 8 Sudoeste 0 -- -- 85
2021-01-16 07:00:00 3.1 5 Sudoeste 25 Noroeste 0 -- -- 80
2021-01-16 06:00:00 2.6 0 Calma 28 Norte 0 -- -- 81
2021-01-16 05:00:00 4 8 Norte 23 Norte 0 -- -- 77
2021-01-16 04:00:00 5.1 16 Norte 31 Norte 0 -- -- 75
2021-01-16 03:00:00 5.4 15 Norte 39 Norte 0 -- -- 74
2021-01-16 02:00:00 5.7 26 Norte 42 Norte 0 -- -- 74
2021-01-16 01:00:00 5.6 17 Norte 36 Norte 0 -- -- 78
2021-01-16 00:00:00 5.5 20 Norte 40 Norte 0 -- -- 76
2021-01-15 23:00:00 5.6 22 Norte 45 Norte 0 -- -- 75
2021-01-15 22:00:00 5.9 21 Norte 35 Noroeste 0 -- -- 75
2021-01-15 21:00:00 5.7 20 Norte 42 Noroeste 0 -- -- 79
2021-01-15 20:00:00 6.4 20 Norte 36 Norte 0 -- -- 76
2021-01-15 19:00:00 6.6 14 Norte 32 Norte 0 -- -- 77
2021-01-15 18:00:00 7.4 21 Norte 50 Norte 0 -- -- 74
2021-01-15 17:00:00 9.1 28 Norte 60 Norte 0 -- -- 67
2021-01-15 16:00:00 9.9 35 Norte 54 Norte 0 -- -- 66
2021-01-15 15:00:00 10.7 28 Norte 61 Norte 0 -- -- 62
2021-01-15 14:00:00 10.4 42 Norte 70 Norte 0 -- -- 60
2021-01-15 13:00:00 9.9 29 Norte 52 Norte 0 -- -- 64
2021-01-15 12:00:00 7.7 21 Norte 46 Norte 0 -- -- 76
2021-01-15 11:00:00 7.1 25 Norte 44 Norte 0 -- -- 79
2021-01-15 10:00:00 6.8 22 Norte 44 Norte 0 -- -- 79
2021-01-15 09:00:00 5.6 19 Norte 37 Norte 0 -- -- 83
2021-01-15 08:00:00 5.4 23 Norte 40 Norte 0 -- -- 84
2021-01-15 07:00:00 5.4 20 Norte 37 Norte 0 -- -- 83
2021-01-15 06:00:00 5.3 16 Norte 30 Noroeste 0 -- -- 82
2021-01-15 05:00:00 5.5 15 Norte 35 Norte 0 -- -- 79
2021-01-15 04:00:00 5.9 22 Norte 36 Noroeste 0 -- -- 80
2021-01-15 03:00:00 5.9 14 Norte 37 Norte 0 -- -- 78
2021-01-15 02:00:00 6.3 18 Norte 35 Norte 0 -- -- 84
2021-01-15 01:00:00 6.1 22 Norte 33 Noroeste 0 -- -- 87
2021-01-15 00:00:00 5.8 22 Norte 41 Norte 0 -- -- 89
2021-01-14 23:00:00 5.8 32 Norte 45 Norte 0 -- -- 89
2021-01-14 22:00:00 5.6 29 Norte 48 Norte 0 -- -- 89
2021-01-14 21:00:00 5.5 19 Norte 48 Norte 0 -- -- 86
2021-01-14 20:00:00 5.4 18 Norte 35 Norte 0 -- -- 85
2021-01-14 19:00:00 5.8 12 Norte 30 Norte 0 -- -- 83
2021-01-14 18:00:00 6.2 13 Noroeste 34 Norte 0 -- -- 78
2021-01-14 17:00:00 7.4 21 Norte 35 Norte 0 -- -- 72
2021-01-14 16:00:00 7.9 14 Norte 26 Norte 0 -- -- 71
2021-01-14 15:00:00 8.1 10 Noroeste 24 Noroeste 0 -- -- 72
2021-01-14 14:00:00 7.9 13 Noroeste 29 Norte 0 -- -- 73
2021-01-14 13:00:00 7.9 13 Norte 22 Norte 0 -- -- 74
2021-01-14 12:00:00 6.7 13 Norte 25 Noroeste 0 -- -- 76
2021-01-14 11:00:00 6.5 4 Noroeste 15 Noroeste 0 -- -- 78
2021-01-14 10:00:00 1.1 7 Sudoeste 13 Oeste 0 -- -- 93
2021-01-14 09:00:00 -0.1 5 Sur 12 Sudoeste 0 -- -- 98
2021-01-14 08:00:00 -1.5 6 Sudoeste 10 Sudoeste 0 -- -- 96
2021-01-14 07:00:00 -1.4 6 Sur 11 Oeste 0 -- -- 97
2021-01-14 06:00:00 -0.2 3 Sudoeste 14 Noroeste 0 -- -- 97
2021-01-14 05:00:00 -1 3 Sur 10 Sudoeste 0 -- -- 97
2021-01-14 04:00:00 -0.9 6 Sudoeste 10 Sur 0 -- -- 95
2021-01-14 03:00:00 1.1 2 Sudoeste 15 Sudoeste 0 -- -- 95
2021-01-14 02:00:00 0.8 6 Sudoeste 14 Noroeste 0 -- -- 93
2021-01-14 01:00:00 2.9 6 Noroeste 22 Noroeste 0 -- -- 89
2021-01-14 00:00:00 2 7 Noroeste 15 Oeste 0 -- -- 96
2021-01-13 23:00:00 3.6 12 Noroeste 19 Noroeste 0 -- -- 89
2021-01-13 22:00:00 3.8 8 Noroeste 19 Noroeste 0 -- -- 87
2021-01-13 21:00:00 3.7 8 Norte 18 Noroeste 0 -- -- 88
2021-01-13 20:00:00 3.4 6 Noroeste 12 Noroeste 0 -- -- 91
2021-01-13 19:00:00 3.6 3 Oeste 8 Noroeste 0 -- -- 88
2021-01-13 18:00:00 4.7 5 Noroeste 18 Noroeste 0 -- -- 85
2021-01-13 17:00:00 7.2 8 Noroeste 18 Noroeste 0 -- -- 76
2021-01-13 16:00:00 7.7 9 Noroeste 15 Noroeste 0 -- -- 73
2021-01-13 15:00:00 9.8 3 Noroeste 15 Norte 0 -- -- 66
2021-01-13 14:00:00 8.2 8 Norte 18 Noroeste 0 -- -- 71
2021-01-13 13:00:00 7.6 8 Norte 15 Norte 0 -- -- 73
2021-01-13 12:00:00 6.9 9 Norte 21 Norte 0 -- -- 75
2021-01-13 11:00:00 5.4 13 Norte 20 Norte 0 -- -- 80
2021-01-13 10:00:00 2.7 6 Sudoeste 9 Sudoeste 0 -- -- 83
2021-01-13 09:00:00 1.3 3 Sudoeste 23 Norte 0 -- -- 89
2021-01-13 08:00:00 3.1 12 Noroeste 23 Noroeste 0 -- -- 86
2021-01-13 07:00:00 2.4 10 Noroeste 17 Noroeste 0 -- -- 87
2021-01-13 06:00:00 2.5 9 Noroeste 17 Noroeste 0 -- -- 86
2021-01-13 05:00:00 2.8 7 Noroeste 30 Norte 0 -- -- 86
2021-01-13 04:00:00 2.5 10 Noroeste 23 Norte 0 -- -- 89
2021-01-13 03:00:00 2.7 12 Noroeste 29 Norte 0 -- -- 86
2021-01-13 02:00:00 2.9 18 Noroeste 26 Norte 0 -- -- 85
2021-01-13 01:00:00 3 17 Noroeste 25 Norte 0 -- -- 84
2021-01-13 00:00:00 3.1 8 Noroeste 26 Norte 0 -- -- 83
2021-01-12 23:00:00 3.6 15 Norte 40 Noroeste 0 -- -- 82
2021-01-12 22:00:00 3.3 17 Norte 32 Norte 0 -- -- 83
2021-01-12 21:00:00 2.4 8 Noroeste 22 Noroeste 0 -- -- 83
2021-01-12 20:00:00 2.5 8 Noroeste 18 Noroeste 0 -- -- 84
2021-01-12 19:00:00 2.9 10 Noroeste 21 Noroeste 0 -- -- 82
2021-01-12 18:00:00 2.6 5 Oeste 20 Noroeste 0 -- -- 85
2021-01-12 17:00:00 4.2 11 Noroeste 18 Noroeste 0 -- -- 79
2021-01-12 16:00:00 5 8 Noroeste 23 Norte 0 -- -- 75
2021-01-12 15:00:00 5 12 Noroeste 24 Noroeste 0 -- -- 74
2021-01-12 14:00:00 6.7 3 Norte 9 Noroeste 0 -- -- 66
2021-01-12 13:00:00 4 4 Sur 7 Sur 0 -- -- 74
2021-01-12 12:00:00 3.7 3 Sudoeste 10 Sudoeste 0 -- -- 71
2021-01-12 11:00:00 -0.8 5 Sur 10 Sudoeste 0 -- -- 80
2021-01-12 10:00:00 -2.6 7 Sur 9 Sudoeste 0 -- -- 93
2021-01-12 09:00:00 -5.4 5 Sur 9 Sudoeste 0 -- -- 97
2021-01-12 08:00:00 -6.9 7 Sur 11 Sudoeste 0 -- -- 94
2021-01-12 07:00:00 -7.9 5 Sur 10 Sudoeste 0 -- -- 97
2021-01-12 06:00:00 -9.2 7 Sudoeste 9 Sudoeste 0 -- -- 92
2021-01-12 05:00:00 -9.1 6 Sur 9 Sudoeste 0 -- -- 92
2021-01-12 04:00:00 -9.2 5 Sur 12 Sur 0 -- -- 89
2021-01-12 03:00:00 -9.5 7 Sudoeste 12 Sudoeste 0 -- -- 94
2021-01-12 02:00:00 -9.4 4 Sur 11 Sudoeste 0 -- -- 92
2021-01-12 01:00:00 -9.9 7 Sudoeste 10 Sudoeste 0 -- -- 86
2021-01-12 00:00:00 -9.2 4 Sur 10 Sur 0 -- -- 87
2021-01-11 23:00:00 -8.7 3 Sudoeste 7 Sudoeste 0 -- -- 90
2021-01-11 22:00:00 -7.8 4 Sur 7 Sur 0 -- -- 89
2021-01-11 21:00:00 -8.2 0 Calma 3 Este 0 -- -- 86
2021-01-11 20:00:00 -5.2 0 Calma 8 Sudoeste 0 -- -- 85
2021-01-11 19:00:00 -3.9 3 Sur 6 Sur 0 -- -- 82
2021-01-11 18:00:00 -2.2 2 Sudoeste 8 Sur 0 -- -- 79
2021-01-11 17:00:00 -1.5 5 Sudoeste 8 Sudoeste 0 -- -- 76
2021-01-11 16:00:00 1.1 4 Sudoeste 6 Sudoeste 0 -- -- 69
2021-01-11 15:00:00 2.5 4 Sudoeste 7 Sudoeste 0 -- -- 63
2021-01-11 14:00:00 2.9 4 Sudoeste 5 Sudoeste 0 -- -- 62
2021-01-11 13:00:00 3.7 0 Calma 4 Sudoeste 1.2 -- -- 58
2021-01-11 12:00:00 1.3 0 Calma 8 Sur 0.2 -- -- 63
2021-01-11 11:00:00 -7.6 7 Sudoeste 9 Sudoeste 0 -- -- 82
2021-01-11 10:00:00 -8 0 Calma 5 Sudeste 0 -- -- 83
2021-01-11 09:00:00 -11.5 0 Calma 6 Sudoeste 0 -- -- 89
2021-01-11 08:00:00 -11.1 3 Sur 8 Sur 0 -- -- 89
2021-01-11 07:00:00 -9.6 5 Sur 8 Sur 0 -- -- 92
2021-01-11 06:00:00 -9.4 0 Calma 8 Sudeste 0 -- -- 87
2021-01-11 05:00:00 -6.7 3 Sur 8 Sudoeste 0 -- -- 89
2021-01-11 04:00:00 -5.9 0 Calma 4 Sur 0 -- -- 92
2021-01-11 03:00:00 -5.8 4 Sur 6 Sur 0 -- -- 92
2021-01-11 02:00:00 -4.5 0 Calma 7 Noroeste 0 -- -- 88
2021-01-11 01:00:00 -2.4 3 Nordeste 9 Norte 0 -- -- 85
2021-01-11 00:00:00 -1 5 Norte 12 Norte 0 -- -- 83
2021-01-10 23:00:00 -0.8 2 Norte 10 Norte 0 -- -- 83
2021-01-10 22:00:00 -0.6 3 Norte 19 Norte 0 -- -- 85
2021-01-10 21:00:00 0.1 12 Norte 21 Norte 0.2 -- -- 82
2021-01-10 20:00:00 0.5 7 Norte 17 Nordeste 0 -- -- 83
2021-01-10 19:00:00 0.8 6 Norte 19 Norte 0 -- -- 84
2021-01-10 18:00:00 1 10 Norte 19 Norte 0.4 -- -- 86
2021-01-10 17:00:00 1.5 4 Oeste 10 Noroeste 0.8 -- -- 89
2021-01-10 16:00:00 2.4 3 Oeste 6 Noroeste 2 -- -- 86
2021-01-10 15:00:00 3.5 2 Oeste 3 Oeste 3.2 -- -- 79
2021-01-10 14:00:00 3.7 0 Calma 3 Nordeste 4 -- -- 79
2021-01-10 13:00:00 4.1 0 Calma 3 Norte 4.6 -- -- 79
2021-01-10 12:00:00 4.6 0 Calma 3 Sudoeste 1.8 -- -- 76
2021-01-10 11:00:00 2.4 0 Calma 3 Este 0.6 -- -- 95
2021-01-10 10:00:00 0.8 0 Calma 0 Calma 0.2 -- -- 98
2021-01-10 09:00:00 0.1 0 Calma -- -- 0 -- -- 100
2021-01-10 08:00:00 -0.1 0 Calma -- -- 0 -- -- 99
2021-01-10 07:00:00 -0.2 0 Calma -- -- 0 -- -- 99
2021-01-10 06:00:00 -0.3 0 Calma -- -- 0 -- -- 99
2021-01-10 05:00:00 -0.3 0 Calma -- -- 0 -- -- 99
2021-01-10 04:00:00 -0.3 0 Calma -- -- 0 -- -- 99
2021-01-10 03:00:00 -0.2 0 Calma -- -- 0 -- -- 99
2021-01-10 02:00:00 -0.2 0 Calma -- -- 0 -- -- 99
2021-01-10 01:00:00 -0.1 0 Calma -- -- 0 -- -- 99
2021-01-10 00:00:00 0 0 Calma -- -- 0 -- -- 99
2021-01-09 23:00:00 0 0 Calma -- -- 0 -- -- 99
2021-01-09 22:00:00 0.1 0 Calma -- -- 0.2 -- -- 99
2021-01-09 21:00:00 0.1 0 Calma -- -- 0 -- -- 99
2021-01-09 20:00:00 0 0 Calma -- -- 0 -- -- 98
2021-01-09 19:00:00 0 0 Calma 3 Nordeste 0.2 -- -- 98
2021-01-09 18:00:00 0.1 0 Calma 3 Norte 0.4 -- -- 98
2021-01-09 17:00:00 0.3 2 Nordeste 8 Norte 0.6 -- -- 97
2021-01-09 16:00:00 0.3 5 Norte 10 Nordeste 1.4 -- -- 97
2021-01-09 15:00:00 0.4 5 Nordeste 11 Nordeste 1.4 -- -- 96
2021-01-09 14:00:00 0.3 6 Nordeste 12 Norte 1.8 -- -- 96
2021-01-09 13:00:00 0.8 0 Calma 8 Este 1.6 -- -- 96
2021-01-09 12:00:00 0.8 0 Calma -- -- 0.2 -- -- 96
2021-01-09 11:00:00 0.8 0 Calma -- -- 0 -- -- 97
2021-01-09 10:00:00 0 0 Calma -- -- 0 -- -- 98
2021-01-09 09:00:00 -0.5 0 Calma -- -- 0 -- -- 98
2021-01-09 08:00:00 -0.9 0 Calma -- -- 0 -- -- 98
2021-01-09 07:00:00 -1.1 0 Calma 0 Calma 0 -- -- 98
2021-01-09 06:00:00 -1.4 0 Calma 2 Norte 0 -- -- 97
2021-01-09 05:00:00 -1.3 0 Calma 3 Nordeste 0 -- -- 97
2021-01-09 04:00:00 -1.3 2 Nordeste 3 Nordeste 0 -- -- 96
2021-01-09 03:00:00 -1.3 0 Calma 2 Norte 0 -- -- 95
2021-01-09 02:00:00 -1.1 2 Este 4 Este 0 -- -- 95
2021-01-09 01:00:00 -0.9 2 Este 8 Este 0 -- -- 94
2021-01-09 00:00:00 -0.7 3 Este 5 Sudeste 0 -- -- 91
2021-01-08 23:00:00 -0.3 0 Calma 5 Oeste 0 -- -- 83
2021-01-08 22:00:00 -0.4 3 Sudoeste 5 Sudoeste 0 -- -- 83
2021-01-08 21:00:00 -0.7 2 Sudoeste 4 Sur 0 -- -- 83
2021-01-08 20:00:00 -1 0 Calma 5 Sudoeste 0 -- -- 83
2021-01-08 19:00:00 -0.3 0 Calma 5 Sur 0 -- -- 79
2021-01-08 18:00:00 0 0 Calma 5 Noroeste 0 -- -- 76
2021-01-08 17:00:00 1.5 3 Noroeste 5 Noroeste 0 -- -- 67
2021-01-08 16:00:00 2 0 Calma 8 Norte 0 -- -- 65
2021-01-08 15:00:00 2.2 2 Nordeste 7 Norte 0 -- -- 65
2021-01-08 14:00:00 1.5 3 Norte 9 Nordeste 0 -- -- 67
2021-01-08 13:00:00 1 4 Nordeste 9 Nordeste 0 -- -- 72
2021-01-08 12:00:00 -0.1 4 Norte 8 Nordeste 0 -- -- 77
2021-01-08 11:00:00 0 0 Calma 4 Este 0 -- -- 80
2021-01-08 10:00:00 -3 2 Sur 6 Sudoeste 0 -- -- 90
2021-01-08 09:00:00 -6.5 3 Sudoeste 5 Sur 0 -- -- 93
2021-01-08 08:00:00 -7 4 Sudoeste 6 Sudoeste 0 -- -- 92
2021-01-08 07:00:00 -6.4 3 Sur 6 Sudoeste 0 -- -- 92
2021-01-08 06:00:00 -6.3 5 Sudoeste 7 Sudoeste 0 -- -- 93
2021-01-08 05:00:00 -6.2 3 Sur 7 Sudoeste 0 -- -- 93
2021-01-08 04:00:00 -5.2 4 Sur 6 Sudoeste 0 -- -- 94
2021-01-08 03:00:00 -5.3 3 Sudoeste 8 Sudoeste 0 -- -- 94
2021-01-08 02:00:00 -4.6 3 Sudoeste 6 Sudoeste 0 -- -- 94
2021-01-08 01:00:00 -3 3 Sudeste 8 Sur 0 -- -- 93
2021-01-08 00:00:00 -3.1 3 Sur 8 Sudoeste 0 -- -- 93
2021-01-07 23:00:00 -1.7 4 Sur 9 Sudoeste 0 -- -- 89
2021-01-07 22:00:00 -1 4 Sudoeste 10 Sudoeste 0 -- -- 89
2021-01-07 21:00:00 -1 3 Sudoeste 10 Sudoeste 0 -- -- 90
2021-01-07 20:00:00 -1.2 3 Sudoeste 6 Sur 0 -- -- 91
2021-01-07 19:00:00 -1 3 Sudoeste 5 Sudoeste 0 -- -- 91
2021-01-07 18:00:00 -0.9 3 Oeste 5 Sudoeste 0 -- -- 89
2021-01-07 17:00:00 -0.1 0 Calma 4 Noroeste 0 -- -- 86
2021-01-07 16:00:00 0.4 0 Calma 8 Nordeste 0 -- -- 85
2021-01-07 15:00:00 0.5 2 Norte 6 Nordeste 0 -- -- 85
2021-01-07 14:00:00 0.2 4 Norte 8 Nordeste 0 -- -- 86
2021-01-07 13:00:00 0 0 Calma 6 Oeste 0 -- -- 87
2021-01-07 12:00:00 -1.1 3 Oeste 5 Oeste 0 -- -- 92
2021-01-07 11:00:00 -2.3 0 Calma 4 Sudoeste 0 -- -- 93
2021-01-07 10:00:00 -3.9 2 Sur 4 Sur 0 -- -- 95
2021-01-07 09:00:00 -5.7 0 Calma 2 Sur 0 -- -- 94
2021-01-07 08:00:00 -5.6 0 Calma 3 Nordeste 0 -- -- 95
2021-01-07 07:00:00 -5.7 0 Calma 2 Norte 0 -- -- 96
2021-01-07 06:00:00 -6.5 0 Calma 0 Calma 0 -- -- 95
2021-01-07 05:00:00 -5.6 0 Calma 4 Norte 0 -- -- 94
2021-01-07 04:00:00 -4.3 0 Calma 5 Sudoeste 0 -- -- 91
2021-01-07 03:00:00 -4.3 2 Sur 6 Sur 0 -- -- 92
2021-01-07 02:00:00 -5.4 3 Sudoeste 5 Sudoeste 0 -- -- 93
2021-01-07 01:00:00 -6 0 Calma 3 Sudoeste 0 -- -- 93
2021-01-07 00:00:00 -4.4 3 Sur 6 Sudoeste 0 -- -- 91
2021-01-06 23:00:00 -4.1 2 Sudoeste 7 Sudoeste 0 -- -- 90
2021-01-06 22:00:00 -3.6 2 Sudoeste 6 Sur 0 -- -- 88
2021-01-06 21:00:00 -3.2 5 Sur 7 Sur 0 -- -- 88
2021-01-06 20:00:00 -3 3 Sudoeste 6 Sur 0 -- -- 87
2021-01-06 19:00:00 -2.8 2 Sur 3 Sur 0 -- -- 86
2021-01-06 18:00:00 0.7 0 Calma 5 Noroeste 0 -- -- 73
2021-01-06 17:00:00 4.9 3 Norte 9 Norte 0 -- -- 56
2021-01-06 16:00:00 5.4 5 Norte 14 Norte 0 -- -- 55
2021-01-06 15:00:00 5.4 4 Norte 15 Norte 0 -- -- 58
2021-01-06 14:00:00 4.9 5 Noroeste 13 Norte 0 -- -- 62
2021-01-06 13:00:00 3.7 5 Norte 11 Norte 0 -- -- 65
2021-01-06 12:00:00 3 4 Noroeste 8 Norte 0 -- -- 69
2021-01-06 11:00:00 1.6 2 Este 6 Nordeste 0 -- -- 78
2021-01-06 10:00:00 -1.9 2 Sur 7 Sudoeste 0 -- -- 88
2021-01-06 09:00:00 -6 3 Sur 6 Sudoeste 0 -- -- 94
2021-01-06 08:00:00 -6 3 Sur 5 Sudoeste 0 -- -- 94
2021-01-06 07:00:00 -5.4 4 Sudoeste 5 Sudoeste 0 -- -- 93
2021-01-06 06:00:00 -4.5 4 Sur 8 Sudoeste 0 -- -- 95
2021-01-06 05:00:00 -5.3 4 Sur 8 Sudoeste 0 -- -- 94
2021-01-06 04:00:00 -4.9 4 Sudoeste 6 Sur 0 -- -- 93
2021-01-06 03:00:00 -4.5 4 Sudoeste 6 Sur 0 -- -- 93
2021-01-06 02:00:00 -4 3 Sur 8 Sudoeste 0 -- -- 93
2021-01-06 01:00:00 -3.6 3 Sur 6 Sur 0 -- -- 91
2021-01-06 00:00:00 -2.8 3 Sur 6 Sur 0 -- -- 90
2021-01-05 23:00:00 -1.3 0 Calma 13 Norte 0 -- -- 87
2021-01-05 22:00:00 -1.3 4 Norte 12 Noroeste 0 -- -- 86
2021-01-05 21:00:00 -0.1 8 Norte 13 Norte 0 -- -- 81
2021-01-05 20:00:00 0.8 7 Noroeste 18 Norte 0 -- -- 78
2021-01-05 19:00:00 1.2 3 Norte 17 Norte 0 -- -- 77
2021-01-05 18:00:00 4.1 12 Norte 36 Norte 0 -- -- 67
2021-01-05 17:00:00 5 19 Norte 28 Norte 0 -- -- 67
2021-01-05 16:00:00 5 19 Norte 32 Norte 0 -- -- 63
2021-01-05 15:00:00 6.6 19 Norte 33 Norte 0 -- -- 59
2021-01-05 14:00:00 6.3 18 Norte 36 Norte 0 -- -- 64
2021-01-05 13:00:00 5.8 13 Norte 24 Noroeste 0 -- -- 67
2021-01-05 12:00:00 4.4 10 Norte 20 Noroeste 0 -- -- 73
2021-01-05 11:00:00 3.8 9 Norte 18 Noroeste 0 -- -- 77
2021-01-05 10:00:00 2.3 10 Noroeste 16 Noroeste 0 -- -- 86
2021-01-05 09:00:00 -0.2 8 Noroeste 11 Noroeste 0 -- -- 94
2021-01-05 08:00:00 -1.7 0 Calma 8 Nordeste 0 -- -- 93
2021-01-05 07:00:00 -1.7 4 Sur 9 Norte 0 -- -- 92
2021-01-05 06:00:00 -1.7 2 Noroeste 9 Norte 0 -- -- 93
2021-01-05 05:00:00 -0.9 4 Norte 11 Norte 0 -- -- 90
2021-01-05 04:00:00 -1.1 0 Calma 10 Norte 0 -- -- 94
2021-01-05 03:00:00 -1.8 5 Noroeste 9 Noroeste 0 -- -- 93
2021-01-05 02:00:00 -1.2 2 Norte 22 Norte 0 -- -- 93
2021-01-05 01:00:00 -1.3 9 Noroeste 15 Noroeste 0 -- -- 96
2021-01-05 00:00:00 -1.8 6 Noroeste 9 Noroeste 0 -- -- 94
2021-01-04 23:00:00 -0.8 0 Calma 10 Noroeste 0 -- -- 92
2021-01-04 22:00:00 0.2 0 Calma 23 Noroeste 0 -- -- 88
2021-01-04 21:00:00 1.6 12 Norte 23 Norte 0 -- -- 84
2021-01-04 20:00:00 2.2 10 Noroeste 18 Norte 0 -- -- 78
2021-01-04 19:00:00 2.5 2 Noroeste 13 Norte 0 -- -- 78
2021-01-04 18:00:00 3.7 7 Norte 14 Noroeste 0 -- -- 70
2021-01-04 17:00:00 4.2 4 Norte 17 Norte 0 -- -- 68
2021-01-04 16:00:00 4.9 5 Nordeste 12 Nordeste 0 -- -- 64
2021-01-04 15:00:00 4.9 7 Nordeste 17 Norte 0 -- -- 68
2021-01-04 14:00:00 5.2 12 Nordeste 24 Noroeste 0 -- -- 67
2021-01-04 13:00:00 6.2 11 Noroeste 27 Noroeste 0 -- -- 60
2021-01-04 12:00:00 5.8 9 Noroeste 19 Noroeste 0 -- -- 61
2021-01-04 11:00:00 4.1 9 Oeste 17 Sudoeste 0 -- -- 74
2021-01-04 10:00:00 1 0 Calma 5 Sudoeste 0 -- -- 91
2021-01-04 09:00:00 -2.7 3 Sudoeste 7 Sudoeste 0 -- -- 97
2021-01-04 08:00:00 -2.4 5 Sudoeste 7 Sudoeste 0 -- -- 97
2021-01-04 07:00:00 -1.5 0 Calma 3 Oeste 0 -- -- 96
2021-01-04 06:00:00 -2.1 2 Sudoeste 7 Sudoeste 0 -- -- 96
2021-01-04 05:00:00 -2.8 0 Calma 5 Sudoeste 0 -- -- 97
2021-01-04 04:00:00 -2.5 0 Calma 5 Sur 0 -- -- 96
2021-01-04 03:00:00 -2 3 Sur 9 Sudoeste 0 -- -- 96
2021-01-04 02:00:00 -0.7 2 Sudoeste 6 Norte 0 -- -- 95
2021-01-04 01:00:00 0.6 5 Norte 19 Noroeste 0 -- -- 93
2021-01-04 00:00:00 1 7 Noroeste 15 Norte 0 -- -- 90
2021-01-03 23:00:00 1.8 9 Noroeste 15 Noroeste 0 -- -- 85
2021-01-03 22:00:00 0.5 5 Sudoeste 9 Sudoeste 0 -- -- 84
2021-01-03 21:00:00 0.9 2 Sur 10 Sur 0 -- -- 81
2021-01-03 20:00:00 1.9 2 Sur 13 Norte 0 -- -- 77
2021-01-03 19:00:00 3.3 5 Norte 23 Noroeste 0 -- -- 71
2021-01-03 18:00:00 2.9 8 Norte 28 Norte 0 -- -- 74
2021-01-03 17:00:00 6.3 22 Norte 41 Norte 0 -- -- 62
2021-01-03 16:00:00 7.5 24 Norte 39 Norte 0 -- -- 59
2021-01-03 15:00:00 7.6 22 Norte 39 Norte 0 -- -- 60
2021-01-03 14:00:00 6.8 26 Norte 39 Norte 0 -- -- 65
2021-01-03 13:00:00 6.6 25 Norte 40 Norte 0 -- -- 65
2021-01-03 12:00:00 6 23 Norte 42 Norte 0 -- -- 66
2021-01-03 11:00:00 5.2 17 Norte 38 Norte 0 -- -- 67
2021-01-03 10:00:00 2.8 10 Norte 18 Norte 0 -- -- 71
2021-01-03 09:00:00 -0.3 6 Norte 16 Norte 0 -- -- 79
2021-01-03 08:00:00 -1.4 4 Noroeste 17 Noroeste 0 -- -- 81
2021-01-03 07:00:00 0.1 12 Norte 22 Norte 0 -- -- 75
2021-01-03 06:00:00 0 11 Norte 21 Norte 0 -- -- 72
2021-01-03 05:00:00 -1.2 3 Nordeste 15 Norte 0 -- -- 71
2021-01-03 04:00:00 -0.4 10 Norte 36 Norte 0 -- -- 65
2021-01-03 03:00:00 0.4 19 Norte 38 Nordeste 0 -- -- 64
2021-01-03 02:00:00 0.6 24 Norte 40 Norte 0 -- -- 61
2021-01-03 01:00:00 0.5 21 Norte 39 Norte 0 -- -- 62
2021-01-03 00:00:00 0.7 21 Norte 45 Norte 0 -- -- 63
2021-01-02 23:00:00 0.7 14 Norte 44 Norte 0 -- -- 61
2021-01-02 22:00:00 0.9 18 Norte 50 Norte 0 -- -- 61
2021-01-02 21:00:00 1.4 28 Norte 46 Norte 0 -- -- 59
2021-01-02 20:00:00 1.2 23 Norte 43 Norte 0 -- -- 61
2021-01-02 19:00:00 1.4 27 Norte 43 Norte 0 -- -- 58
2021-01-02 18:00:00 1.8 28 Norte 43 Norte 0 -- -- 58
2021-01-02 17:00:00 3.6 22 Norte 47 Norte 0 -- -- 54
2021-01-02 16:00:00 5.3 27 Norte 50 Norte 0 -- -- 48
2021-01-02 15:00:00 6.3 27 Norte 55 Norte 0 -- -- 47
2021-01-02 14:00:00 6.3 28 Norte 47 Norte 0 -- -- 54